It's Tuesday,
July 23rd, 2024
User not logged in
[Run Race Header Image][Run Race logo]
  
Race webcasting is attempted by race directors and their support staff. Please remember that conditions under which they're working may make it difficult to post timely webcast updates... your interest and patience is appreciated!
Race Information
Race Name:Des Plaines River Trail Races 2016
Location:Half Day Forest Preserve - Vernon Hills
State:Illinois, United States
 button: button: Webcast Autoplay
Event Information
Name of Event:DPR Trail 50 Mile Ultramarathon
Distance:50 Miles
Started Date/Time:Saturday October 15th, 2016, 6:59:55.46 am
button: Assign Numbers 

Event Information
Name of Event:DPR Trail Marathon
Distance:26.2 Miles
Started Date/Time:Saturday October 15th, 2016, 7:59:55.51 am
button: Assign Numbers  
Checkpoint:#5 Adler Park : Turnaround
Distance:14.4 Miles
Gun Start Time:Saturday October 15th, 2016 7:59:55.51 am
Calculate Chip Start Time:Yes
Y or N... Calculate splits based upon participant chip start time?
Allow Early Chip Start Time:< not set >
Y or N... Allow participants a chip start time prior to gun start?
Pos Race
Number
NameAgeSexTimePace 
178Zach Gingerich28M1:27:56.16:06.4Sat Oct 15th, 2016 9:27:52 am
2122Gary Gudlin53M1:40:01.06:56.7Sat Oct 15th, 2016 9:39:57 am
3201Matt Aro29M1:40:34.86:59.1Sat Oct 15th, 2016 9:40:31 am
463Bill Etnyre26M1:40:58.17:00.7Sat Oct 15th, 2016 9:40:54 am
5150Summer Forester25F1:47:15.07:26.9Sat Oct 15th, 2016 9:47:12 am
6Tim Fager40M1:52:13.27:47.6Sat Oct 15th, 2016 9:52:09 am
7Leonard Ealey40M1:52:32.07:48.9Sat Oct 15th, 2016 9:55:36 am
8117Linda McQuinn50F1:52:40.87:49.5Sat Oct 15th, 2016 9:52:41 am
91271Fleet Feet MadisonX1:55:11.58:00.0Sat Oct 15th, 2016 9:55:12 am
101311The Flyin' FlunkiesX1:55:21.28:00.6Sat Oct 15th, 2016 9:55:19 am
111321Team SBRX1:55:28.18:01.1Sat Oct 15th, 2016 9:55:28 am
1268Edward Rousseau68M1:55:41.08:02.0Sat Oct 15th, 2016 9:55:41 am
13822Debbie Tirrito53F1:56:04.38:03.6Sat Oct 15th, 2016 9:56:03 am
14684chase marsden17M1:56:48.68:06.7Sat Oct 15th, 2016 9:59:46 am
15782Albert Laporte38M1:57:51.78:11.1Sat Oct 15th, 2016 10:00:51 am
16824James Turner36M1:58:04.28:12.0Sat Oct 15th, 2016 9:58:03 am
171:58:44.98:14.8Sat Oct 15th, 2016 9:58:42 am
18Gabe Rainwater20M1:59:39.58:18.6Sat Oct 15th, 2016 9:59:39 am
19755gary bennington48M1:59:44.98:19.0Sat Oct 15th, 2016 9:59:40 am
20607Janelle Zimmerman28F1:59:50.08:19.3Sat Oct 15th, 2016 9:59:53 am
2142Christopher Miller28M2:00:00.68:20.0Sat Oct 15th, 2016 10:00:03 am
2219liam genereaux13M2:00:31.88:22.2Sat Oct 15th, 2016 10:00:30 am
2376Susan Morrill14F2:00:50.38:23.5Sat Oct 15th, 2016 10:01:00 am
24790Dan Myers50M2:01:38.98:26.9Sat Oct 15th, 2016 10:01:37 am
25162Lawrence Seward63M2:01:50.48:27.7Sat Oct 15th, 2016 10:01:49 am
26542.1Rachel Furman25F2:02:57.48:32.3Sat Oct 15th, 2016 10:05:56 am
27830Ray Zirblis53M2:03:33.18:34.8Sat Oct 15th, 2016 10:03:33 am
28Dennis Nink46M2:03:40.08:35.3Sat Oct 15th, 2016 10:03:39 am
29Drew Deppen25M2:03:51.58:36.1Sat Oct 15th, 2016 10:03:58 am
30430Team BuffaloM2:04:02.78:36.9Sat Oct 15th, 2016 10:04:01 am
31645Chris Alexander40M2:04:23.18:38.3Sat Oct 15th, 2016 10:04:26 am
32209Paul Hanaki-Martin45M2:04:32.58:38.9Sat Oct 15th, 2016 10:07:41 am
33Rob Hermann39M2:05:00.28:40.8Sat Oct 15th, 2016 10:07:58 am
34189Varsha Kulkarni44F2:05:20.28:42.2Sat Oct 15th, 2016 10:05:19 am
3511Bob Rehn65M2:05:20.58:42.3Sat Oct 15th, 2016 10:05:23 am
3670Dwayne Sandall41M2:07:05.58:49.5Sat Oct 15th, 2016 10:10:02 am
37648Burch LaPrade36M2:07:12.18:50.0Sat Oct 15th, 2016 10:10:15 am
3892Patrick Gorman49M2:07:37.68:51.8Sat Oct 15th, 2016 10:07:39 am
39262Raymond churgovich42M2:07:40.48:52.0Sat Oct 15th, 2016 10:07:43 am
4098Scott Jacaway50M2:07:44.58:52.3Sat Oct 15th, 2016 10:07:46 am
4131Tonique Allen47F2:07:45.48:52.3Sat Oct 15th, 2016 10:07:45 am
42Mary Anne Dougherty53F2:07:49.18:52.6Sat Oct 15th, 2016 10:07:44 am
43146Rebecca Kasten39F2:07:55.88:53.0Sat Oct 15th, 2016 10:11:17 am
44521Marla Luckey27F2:08:08.18:53.9Sat Oct 15th, 2016 10:11:19 am
45Robert Sphar57M2:08:55.88:57.2Sat Oct 15th, 2016 10:08:51 am
46Eric Heath35M2:09:06.48:57.9Sat Oct 15th, 2016 10:12:05 am
47656Mark Carlson45M2:09:20.18:58.9Sat Oct 15th, 2016 10:09:26 am
48Nancy Campos22F2:09:31.48:59.7Sat Oct 15th, 2016 10:09:35 am
4919Mark Godale37M2:10:08.69:02.3Sat Oct 15th, 2016 10:10:20 am
50267Stephen Geering53M2:10:13.59:02.6Sat Oct 15th, 2016 10:13:10 am
51Constance Karras42F2:10:27.19:03.6Sat Oct 15th, 2016 10:13:27 am
52272ANDREA PUTZ25F2:10:27.79:03.6Sat Oct 15th, 2016 10:10:39 am
53191Scott Hudson40M2:11:10.49:06.6Sat Oct 15th, 2016 10:11:18 am
54Jana Kiefer55F2:11:28.79:07.8Sat Oct 15th, 2016 10:14:28 am
55Anthony Daino31M2:12:04.79:10.3Sat Oct 15th, 2016 10:18:08 am
5684ben choi56M2:13:26.39:16.0Sat Oct 15th, 2016 10:16:36 am
571231Internal Revenue RunnersX2:13:36.19:16.7Sat Oct 15th, 2016 10:16:34 am
58784Jeff List48M2:14:16.89:19.5Sat Oct 15th, 2016 10:17:25 am
591Urban Cougar48M2:14:18.79:19.6Sat Oct 15th, 2016 10:14:20 am
6016Anthony Mischo36M2:14:32.99:20.6Sat Oct 15th, 2016 10:17:30 am
6158sean Doyle15M2:14:36.49:20.9Sat Oct 15th, 2016 10:18:00 am
62Michael Morgan34M2:15:04.39:22.8Sat Oct 15th, 2016 10:18:04 am
636roy pIrRUNg59M2:15:30.79:24.6Sat Oct 15th, 2016 10:15:43 am
64609Paul DeWitt39M2:16:04.89:27.0Sat Oct 15th, 2016 10:19:13 am
65alexa alexanderian39F2:16:10.49:27.4Sat Oct 15th, 2016 10:19:19 am
66257Kami Holtz35F2:16:41.29:29.5Sat Oct 15th, 2016 10:16:52 am
67828Randy Witlicki52M2:17:36.59:33.4Sat Oct 15th, 2016 10:17:48 am
68527Frank Powers48M2:17:41.09:33.7Sat Oct 15th, 2016 10:20:43 am
69Mike Caldwell39M2:17:49.79:34.3Sat Oct 15th, 2016 10:20:52 am
7069Anne Ver Hoef47F2:18:09.39:35.6Sat Oct 15th, 2016 10:24:10 am
71789Mariah Murphy24F2:18:12.09:35.8Sat Oct 15th, 2016 10:24:13 am
7261Lori Pierce37F2:18:12.69:35.9Sat Oct 15th, 2016 10:18:08 am
73440Psychic MaryM2:18:54.09:38.7Sat Oct 15th, 2016 10:21:53 am
74585Jane Chapman48F2:18:54.79:38.8Sat Oct 15th, 2016 10:21:56 am
75161Matt Santo31M2:19:01.99:39.3Sat Oct 15th, 2016 10:22:03 am
76763Kristen Evan46F2:19:40.49:42.0Sat Oct 15th, 2016 10:22:39 am
77Julie Brandt25F2:20:31.89:45.5Sat Oct 15th, 2016 11:05:52 am
78Ty Wivell33M2:20:58.39:47.4Sat Oct 15th, 2016 10:24:01 am
792:21:02.39:47.7Sat Oct 15th, 2016 10:21:11 am
8011Stubs Turtle48M2:21:02.69:47.7Sat Oct 15th, 2016 10:24:05 am
81813TIMOTHYP ROY43M2:21:06.29:47.9Sat Oct 15th, 2016 10:24:07 am
8224kurt decker36M2:21:07.59:48.0Sat Oct 15th, 2016 10:24:09 am
83100HUNG K NG43M2:21:17.29:48.7Sat Oct 15th, 2016 10:21:12 am
848Marc Drautz35M2:21:40.49:50.3Sat Oct 15th, 2016 10:25:01 am
85767steve genereaux46M2:22:24.49:53.4Sat Oct 15th, 2016 10:25:30 am
86812BETTY ROSE60F2:22:32.49:53.9Sat Oct 15th, 2016 10:22:38 am
87108David A. Hughes63M2:23:02.39:56.0Sat Oct 15th, 2016 10:29:05 am
88637Steve Riportella42M2:23:02.89:56.0Sat Oct 15th, 2016 10:29:09 am
89195Patrik Berger33M2:23:12.09:56.7Sat Oct 15th, 2016 10:29:09 am
9031Edwin Cook52M2:24:15.010:01.0Sat Oct 15th, 2016 10:27:25 am
91Steven Donley37M2:25:01.410:04.3Sat Oct 15th, 2016 10:24:56 am
92Joel Maurer53M2:25:19.010:05.5Sat Oct 15th, 2016 10:28:18 am
93Matthew McQueen19M2:25:27.410:06.1Sat Oct 15th, 2016 10:28:33 am
94Lauren Lawrence28F2:25:49.310:07.6Sat Oct 15th, 2016 10:31:53 am
95John Collet40M2:26:38.110:11.0Sat Oct 15th, 2016 10:29:40 am
96102Greg Loomis34M2:27:30.310:14.6Sat Oct 15th, 2016 10:33:43 am
97Ryan Dannhorn30M2:28:39.910:19.4Sat Oct 15th, 2016 10:31:45 am
9858Michael Matteson49M2:29:16.010:21.9Sat Oct 15th, 2016 10:35:12 am
99Paul Clement49M2:29:19.510:22.2Sat Oct 15th, 2016 10:35:21 am
100118Chris Migotsky43M2:29:20.410:22.2Sat Oct 15th, 2016 10:35:20 am
10168Vicky Alcantar21F2:29:27.910:22.8Sat Oct 15th, 2016 10:35:37 am
10264Eric Lacher39M2:30:29.310:27.0Sat Oct 15th, 2016 10:36:25 am
103172Tom Bunk66M2:30:55.810:28.9Sat Oct 15th, 2016 10:37:10 am
10437Ann Heaslett44F2:31:17.910:30.4Sat Oct 15th, 2016 10:37:27 am
1052Lee Biga21M2:31:50.910:32.7Sat Oct 15th, 2016 10:37:49 am
106192Greg Allen43M2:31:53.010:32.8Sat Oct 15th, 2016 10:34:59 am
107193Patrick Mills56M2:32:19.510:34.7Sat Oct 15th, 2016 10:38:33 am
108Rebecca Geffers25F2:32:31.410:35.5Sat Oct 15th, 2016 10:38:46 am
109Betty Lacharite72F2:32:34.110:35.7Sat Oct 15th, 2016 10:38:43 am
110207Josh Dillingham23M2:32:37.110:35.9Sat Oct 15th, 2016 10:38:58 am
111264Julie Shimer29F2:34:25.910:43.5Sat Oct 15th, 2016 10:37:33 am
1121181No Name RunnersX2:34:28.610:43.7Sat Oct 15th, 2016 10:40:41 am
113101David Wakefield33M2:35:09.710:46.5Sat Oct 15th, 2016 10:41:17 am
114218Charlotte Vasarhelyi33F2:35:16.510:47.0Sat Oct 15th, 2016 10:38:22 am
115115Russell De Lap51M2:36:55.610:53.9Sat Oct 15th, 2016 10:43:03 am
116152Julie Schroeder51F2:36:59.410:54.1Sat Oct 15th, 2016 10:42:59 am
11796Craig Swartwout50M2:37:44.910:57.3Sat Oct 15th, 2016 10:43:57 am
118694Bill Gengler54M2:37:45.110:57.3Sat Oct 15th, 2016 10:43:52 am
119200Logan Beaulieu37M2:37:48.510:57.5Sat Oct 15th, 2016 10:44:00 am
120103Brad Birkholz40M2:37:59.310:58.3Sat Oct 15th, 2016 10:44:11 am
121673Dustin Marsden23M2:38:09.210:59.0Sat Oct 15th, 2016 10:44:09 am
122124Keith Browning37M2:39:04.511:02.8Sat Oct 15th, 2016 10:39:00 am
123gary Henry51M2:39:31.011:04.7Sat Oct 15th, 2016 10:48:28 am
124Evan Levine27M2:39:47.611:05.8Sat Oct 15th, 2016 10:45:59 am
12543Lee Krautkramer42M2:39:56.611:06.4Sat Oct 15th, 2016 10:46:05 am
126Don Lacharite76M2:40:01.811:06.8Sat Oct 15th, 2016 10:46:00 am
127196Tom Kissner47M2:40:02.611:06.8Sat Oct 15th, 2016 10:46:03 am
128Bob Elizeus44M2:41:15.811:11.9Sat Oct 15th, 2016 10:47:21 am
129667Tana Repella27F2:41:22.611:12.4Sat Oct 15th, 2016 10:47:29 am
130Kyle Kershner46M2:41:24.511:12.5Sat Oct 15th, 2016 10:47:32 am
131672Paul Krzesinski28M2:41:40.011:13.6Sat Oct 15th, 2016 10:47:36 am
13259tim adair35M2:42:13.311:15.9Sat Oct 15th, 2016 10:51:10 am
133753Alireza Ashtari30M2:43:07.111:19.7Sat Oct 15th, 2016 10:49:18 am
134203DICK CANTERBURY61M2:43:10.811:19.9Sat Oct 15th, 2016 10:49:10 am
135148Michelle Gallagher42F2:43:14.411:20.2Sat Oct 15th, 2016 10:52:22 am
13656Matt Ostrander46M2:43:36.611:21.7Sat Oct 15th, 2016 10:43:32 am
13755dominic ruffalo57M2:44:30.511:25.5Sat Oct 15th, 2016 10:50:36 am
1381141Weakened WarriorsX2:44:30.811:25.5Sat Oct 15th, 2016 10:50:36 am
139815Brian Rusiecki29M2:48:06.611:40.5Sat Oct 15th, 2016 11:06:02 am
140390Friday NightersM2:48:39.311:42.7Sat Oct 15th, 2016 10:54:49 am
141570kevin benes22M2:48:43.611:43.0Sat Oct 15th, 2016 10:54:41 am
142Angeline Stuma21F2:48:45.211:43.1Sat Oct 15th, 2016 10:54:43 am
143Gerald Barney75M2:49:56.411:48.1Sat Oct 15th, 2016 10:55:56 am
1441151Team Java JogX2:49:59.411:48.3Sat Oct 15th, 2016 10:49:54 am
145646Al Kershner54M2:50:07.411:48.8Sat Oct 15th, 2016 10:59:04 am
146816Nathan Sanel39M2:50:44.911:51.5Sat Oct 15th, 2016 10:59:50 am
147Christina Ashley47F2:51:35.211:54.9Sat Oct 15th, 2016 10:57:41 am
148214MICHAEL SILTMAN40M2:52:04.311:57.0Sat Oct 15th, 2016 11:01:07 am
149153dorn peddy50M2:53:07.412:01.3Sat Oct 15th, 2016 11:02:14 am
150Mark W. Damitio49M2:53:35.112:03.3Sat Oct 15th, 2016 10:59:43 am
151273BEN PUTZ27M2:59:48.112:29.2Sat Oct 15th, 2016 11:08:50 am
152604Kori Hieser28M2:59:51.312:29.4Sat Oct 15th, 2016 11:08:53 am
153Mary Scheerer49F3:00:06.812:30.5Sat Oct 15th, 2016 11:00:02 am
15434Diane Odekirk67F3:00:21.212:31.5Sat Oct 15th, 2016 11:06:32 am
155Pete Stringer67M3:01:05.012:34.5Sat Oct 15th, 2016 11:10:09 am
156163Brett Sherwood33M3:01:54.112:37.9Sat Oct 15th, 2016 11:08:04 am
157Ray Zirblis53M3:01:54.312:37.9Sat Oct 15th, 2016 11:08:04 am
158110Benjamin Clardy37M3:02:10.712:39.1Sat Oct 15th, 2016 11:08:12 am
159Spencer Eastman18M3:02:59.912:42.5Sat Oct 15th, 2016 11:09:06 am
16017Bruce Genereaux44M3:03:51.912:46.1Sat Oct 15th, 2016 11:09:55 am
161116Sherry Meador42F3:04:46.312:49.9Sat Oct 15th, 2016 11:10:51 am
162111Tom Krause37M3:05:44.312:53.9Sat Oct 15th, 2016 11:11:45 am
163187Deb Johnson48F3:07:22.513:00.7Sat Oct 15th, 2016 11:16:23 am
164Chris Lawrence33M3:08:27.213:05.2Sat Oct 15th, 2016 11:11:34 am
165664Jim Wilson48M3:08:29.113:05.4Sat Oct 15th, 2016 11:11:36 am
166641James Thorpe26M3:12:38.813:22.7Sat Oct 15th, 2016 11:22:18 am
16781Joseph Cichon43M3:13:16.113:25.3Sat Oct 15th, 2016 11:22:16 am
168217Tracy Thomas47F3:16:17.813:37.9Sat Oct 15th, 2016 11:16:28 am
169123todd nott44M3:17:02.613:41.0Sat Oct 15th, 2016 11:26:04 am
170Jonathan Fintzi21M3:19:29.713:51.2Sat Oct 15th, 2016 11:25:33 am
171114Dennis Crowne52M3:21:01.813:57.6Sat Oct 15th, 2016 11:21:12 am
172162Ronald Evans41M3:21:14.313:58.5Sat Oct 15th, 2016 11:30:19 am
173Bradley Riedl24M3:26:25.414:20.1Sat Oct 15th, 2016 11:35:22 am
174635Josh Marsden21M3:26:26.514:20.2Sat Oct 15th, 2016 11:35:34 am
175Peggy Owens60F3:27:53.714:26.2Sat Oct 15th, 2016 11:34:03 am
176571Spencer Swearingen30M3:30:56.714:38.9Sat Oct 15th, 2016 11:39:56 am
177787Robert J Mathes55M3:34:00.214:51.7Sat Oct 15th, 2016 11:40:07 am
178638Brian Finney40M3:36:05.815:00.4Sat Oct 15th, 2016 11:56:01 am
179James Brown50M3:47:20.115:47.2Sat Oct 15th, 2016 11:56:18 am
180Geoff Riggs37M3:47:25.415:47.6Sat Oct 15th, 2016 11:56:24 am
18123connie gardner44F3:50:17.515:59.6Sat Oct 15th, 2016 11:59:23 am
182155Thomas Krause36M4:10:47.317:25.0Sat Oct 15th, 2016 12:16:55 pm
183779Nikki Kimball37F4:23:37.718:18.4Sat Oct 15th, 2016 12:32:41 pm
184117Paul Doody48M4:32:21.018:54.8Sat Oct 15th, 2016 12:41:43 pm

Event Information
Name of Event:DPR Trail Half-Marathon
Distance:13.1 Miles
Started Date/Time:Saturday October 15th, 2016, 8:59:56.10 am
button: Assign Numbers 
2004-2024 : All rights reserved
Terms and Conditions